Time;durP1;ratioP1;P1;durP2;ratioP2;P2;SDS_P1;SDS_P2;PMS_P1;PMS_P2;Temp;Humidity;BMP_temperature;BMP_pressure;BME280_temperature;BME280_humidity;BME280_pressure;Samples;Min_cycle;Max_cycle;Signal;HPM_P1;HPM_P2
2021/12/14 00:00:36;;;;;;;36.13;16.90;;;;;;;2.21;90.60;101213.16;126319;1098;104242;-78
2021/12/14 00:03:17;;;;;;;38.60;18.45;;;;;;;2.19;90.42;101219.91;126327;1099;104172;-78
2021/12/14 00:05:48;;;;;;;40.50;18.53;;;;;;;2.21;90.46;101228.70;126250;1099;104267;-79
2021/12/14 00:08:20;;;;;;;37.23;16.17;;;;;;;2.22;90.83;101228.82;126304;1099;104169;-79
2021/12/14 00:11:13;;;;;;;42.97;18.43;;;;;;;2.21;90.54;101234.77;126173;1099;104271;-78
2021/12/14 00:13:56;;;;;;;38.20;17.97;;;;;;;2.21;90.53;101241.64;126102;1098;104143;-78
2021/12/14 00:16:27;;;;;;;41.33;18.53;;;;;;;2.22;90.43;101248.64;126080;1099;104229;-78
2021/12/14 00:19:01;;;;;;;34.40;16.30;;;;;;;2.21;90.98;101255.48;126108;1099;104229;-78
2021/12/14 00:21:33;;;;;;;35.90;16.63;;;;;;;2.23;90.72;101263.38;126112;1099;104939;-79
2021/12/14 00:24:11;;;;;;;38.37;17.37;;;;;;;2.26;90.04;101259.38;126050;1099;104149;-78
2021/12/14 00:26:47;;;;;;;35.00;16.13;;;;;;;2.27;90.14;101262.86;126157;1097;104159;-79
2021/12/14 00:29:36;;;;;;;39.77;17.23;;;;;;;2.25;91.11;101254.97;126194;1099;104195;-78
2021/12/14 00:32:20;;;;;;;36.30;16.40;;;;;;;2.23;90.20;101259.12;126254;1099;104236;-79
2021/12/14 00:35:03;;;;;;;38.13;17.20;;;;;;;2.20;90.26;101255.36;126228;1099;104309;-79
2021/12/14 00:37:45;;;;;;;38.15;16.90;;;;;;;2.19;90.65;101257.05;126192;1099;105477;-78
2021/12/14 00:40:23;;;;;;;38.47;17.47;;;;;;;2.15;90.31;101258.50;126296;1099;104273;-78
2021/12/14 00:42:55;;;;;;;38.00;16.17;;;;;;;2.18;90.28;101263.00;126314;1099;104143;-78
2021/12/14 00:45:30;;;;;;;34.70;16.10;;;;;;;2.18;90.97;101259.52;126232;1099;104694;-78
2021/12/14 00:48:02;;;;;;;35.27;16.53;;;;;;;2.15;90.54;101270.52;126256;1099;104139;-78
2021/12/14 00:50:34;;;;;;;36.20;16.77;;;;;;;2.13;90.71;101261.73;126241;1099;104437;-78
2021/12/14 00:53:09;;;;;;;35.30;16.23;;;;;;;2.12;90.76;101254.73;126287;1099;104153;-78
2021/12/14 00:55:44;;;;;;;37.40;16.77;;;;;;;2.09;90.66;101252.82;126263;1099;104156;-78
2021/12/14 00:58:19;;;;;;;37.60;16.30;;;;;;;2.08;90.58;101245.83;126253;1099;104155;-78
2021/12/14 01:00:57;;;;;;;36.50;16.50;;;;;;;2.07;90.13;101244.04;126255;1099;104272;-78
2021/12/14 01:03:31;;;;;;;36.20;16.57;;;;;;;2.06;90.69;101247.39;126317;1099;104591;-79
2021/12/14 01:06:10;;;;;;;37.05;16.15;;;;;;;2.05;90.93;101244.68;126301;1099;104156;-78
2021/12/14 01:08:49;;;;;;;38.00;16.10;;;;;;;2.05;90.55;101247.27;126157;1098;104200;-78
2021/12/14 01:11:36;;;;;;;40.40;16.70;;;;;;;2.03;90.66;101236.79;126214;1099;104192;-78
2021/12/14 01:14:11;;;;;;;40.73;18.63;;;;;;;2.01;90.48;101240.02;126172;1099;104316;-78
2021/12/14 01:16:52;;;;;;;38.93;17.17;;;;;;;1.97;90.42;101237.18;126202;1099;104165;-78
2021/12/14 01:19:28;;;;;;;35.43;16.20;;;;;;;1.96;90.94;101237.98;126022;1099;104166;-79
2021/12/14 01:22:33;;;;;;;35.83;15.27;;;;;;;1.97;90.86;101241.46;126187;1099;104376;-78
2021/12/14 01:25:13;;;;;;;36.97;16.73;;;;;;;1.96;90.45;101237.98;126168;1099;104181;-79
2021/12/14 01:27:50;;;;;;;40.47;17.03;;;;;;;1.97;90.11;101236.28;125292;1099;104310;-78
2021/12/14 01:30:29;;;;;;;39.63;17.50;;;;;;;1.96;90.87;101242.23;125279;1099;104408;-78
2021/12/14 01:33:04;;;;;;;35.60;16.63;;;;;;;1.94;90.42;101241.21;125238;1099;104344;-78
2021/12/14 01:35:39;;;;;;;34.90;16.87;;;;;;;1.94;90.25;101246.39;125940;1099;104149;-78
2021/12/14 01:38:31;;;;;;;36.13;16.80;;;;;;;1.92;89.97;101245.37;125912;1099;104310;-79
2021/12/14 01:41:07;;;;;;;35.20;15.70;;;;;;;1.91;90.54;101240.95;125361;1099;104450;-79
2021/12/14 01:43:47;;;;;;;36.07;16.10;;;;;;;1.88;90.47;101245.88;126163;1099;104411;-78
2021/12/14 01:46:28;;;;;;;38.73;17.40;;;;;;;1.86;90.85;101242.27;125412;1099;104162;-78
2021/12/14 01:49:10;;;;;;;38.00;16.97;;;;;;;1.87;90.65;101241.47;126109;1099;104270;-78
2021/12/14 01:52:04;;;;;;;40.93;17.33;;;;;;;1.88;91.04;101251.06;126207;1099;101890;-78
2021/12/14 01:54:42;;;;;;;37.27;17.23;;;;;;;1.86;90.80;101240.58;126293;1097;104383;-77
2021/12/14 01:57:17;;;;;;;37.73;15.97;;;;;;;1.85;90.81;101241.34;126255;1099;104143;-78
2021/12/14 01:59:55;;;;;;;36.03;16.20;;;;;;;1.87;90.97;101244.98;126221;1099;104245;-78
2021/12/14 02:02:40;;;;;;;34.57;16.30;;;;;;;1.86;90.29;101253.52;126276;1099;103361;-78
2021/12/14 02:05:27;;;;;;;39.43;16.87;;;;;;;1.84;90.66;101249.91;126365;1099;104163;-79
2021/12/14 02:08:00;;;;;;;39.03;17.30;;;;;;;1.88;91.18;101251.06;126311;1099;104937;-78
2021/12/14 02:10:36;;;;;;;34.53;16.10;;;;;;;1.88;90.97;101253.64;126344;1099;108177;-78
2021/12/14 02:13:08;;;;;;;38.20;17.13;;;;;;;1.86;90.65;101258.70;126329;1099;104146;-79
2021/12/14 02:15:44;;;;;;;37.13;16.93;;;;;;;1.85;90.73;101251.70;126355;1099;104634;-79
2021/12/14 02:18:23;;;;;;;35.00;16.13;;;;;;;1.86;90.74;101268.16;126288;1099;104663;-78
2021/12/14 02:24:08;;;;;;;35.75;17.05;;;;;;;1.89;90.83;101265.82;126262;1099;104300;-78
2021/12/14 02:26:43;;;;;;;36.07;15.73;;;;;;;1.90;91.44;101270.20;126320;1099;104268;-79
2021/12/14 02:29:25;;;;;;;32.93;15.03;;;;;;;1.89;90.35;101266.72;126076;1099;104365;-78
2021/12/14 02:32:03;;;;;;;34.50;16.13;;;;;;;1.90;90.83;101265.02;125451;1099;104159;-78
2021/12/14 02:34:42;;;;;;;35.33;15.60;;;;;;;1.91;90.51;101269.43;125466;1099;104583;-79
2021/12/14 02:37:15;;;;;;;33.00;15.50;;;;;;;1.91;91.05;101266.84;126209;1099;104316;-78
2021/12/14 02:40:01;;;;;;;39.50;17.07;;;;;;;1.91;90.95;101277.19;126163;1098;104313;-79
2021/12/14 02:42:35;;;;;;;35.10;15.77;;;;;;;1.91;90.90;101278.09;126217;1099;104475;-79
2021/12/14 02:45:09;;;;;;;37.90;17.13;;;;;;;1.92;90.79;101268.66;125417;1099;104143;-78
2021/12/14 02:47:41;;;;;;;35.33;16.47;;;;;;;1.93;91.06;101268.79;126218;1098;104300;-79
2021/12/14 02:50:13;;;;;;;35.10;15.87;;;;;;;1.93;90.99;101273.04;126119;1099;104178;-78
2021/12/14 02:52:45;;;;;;;34.40;16.60;;;;;;;1.92;90.68;101268.66;125460;1099;104153;-78
2021/12/14 02:55:21;;;;;;;37.80;16.83;;;;;;;1.90;90.78;101278.89;126222;1099;104252;-79
2021/12/14 02:57:59;;;;;;;35.53;16.03;;;;;;;1.89;90.92;101277.06;125460;1099;104161;-78
2021/12/14 03:00:35;;;;;;;37.00;17.13;;;;;;;1.87;91.26;101272.53;125451;1099;104335;-78
2021/12/14 03:03:10;;;;;;;34.03;17.03;;;;;;;1.83;90.20;101275.66;126272;1098;104194;-78
2021/12/14 03:05:44;;;;;;;36.20;16.35;;;;;;;1.80;90.68;101290.14;126321;1098;104615;-78
2021/12/14 03:08:18;;;;;;;36.37;17.47;;;;;;;1.76;90.94;101281.98;126320;1099;104229;-78
2021/12/14 03:10:59;;;;;;;36.08;16.62;;;;;;;1.70;91.18;101284.98;126290;1099;104198;-79
2021/12/14 03:13:36;;;;;;;37.90;17.00;;;;;;;1.67;90.67;101287.32;126347;1099;104258;-77
2021/12/14 03:16:12;;;;;;;35.70;17.07;;;;;;;1.64;91.14;101276.72;126319;1098;104178;-78
2021/12/14 03:18:49;;;;;;;36.23;17.73;;;;;;;1.63;90.83;101289.52;126303;1099;104274;-78
2021/12/14 03:21:26;;;;;;;39.30;18.13;;;;;;;1.64;90.69;101289.65;126279;1099;104175;-78
2021/12/14 03:24:02;;;;;;;35.13;16.63;;;;;;;1.66;90.83;101290.67;126368;1099;104144;-78
2021/12/14 03:26:35;;;;;;;37.37;17.63;;;;;;;1.66;91.18;101290.67;126403;1099;104178;-78
2021/12/14 03:29:09;;;;;;;38.33;16.85;;;;;;;1.65;91.15;101294.02;126305;1098;104185;-78
2021/12/14 03:31:44;;;;;;;38.55;17.25;;;;;;;1.62;91.40;101293.77;126296;1099;104192;-78
2021/12/14 03:34:23;;;;;;;37.33;17.73;;;;;;;1.59;91.08;101291.85;126342;1099;104185;-77
2021/12/14 03:36:57;;;;;;;35.70;17.50;;;;;;;1.61;91.22;101300.64;126345;1098;104149;-78
2021/12/14 03:39:35;;;;;;;38.60;18.00;;;;;;;1.60;91.32;101295.33;126307;1099;104294;-78
2021/12/14 03:42:14;;;;;;;38.30;16.00;;;;;;;1.59;90.98;101301.27;126235;1099;104192;-78
2021/12/14 03:44:48;;;;;;;37.47;18.13;;;;;;;1.57;91.33;101301.17;126343;1099;104175;-78
2021/12/14 03:47:25;;;;;;;37.77;18.30;;;;;;;1.57;91.73;101297.66;126293;1099;104223;-78
2021/12/14 03:49:59;;;;;;;41.00;19.67;;;;;;;1.59;90.81;101298.69;126346;1099;104222;-77
2021/12/14 03:52:34;;;;;;;38.13;18.33;;;;;;;1.60;91.16;101303.09;126280;1099;104252;-77
2021/12/14 03:55:16;;;;;;;41.73;19.23;;;;;;;1.59;90.70;101304.78;126281;1099;104182;-78
2021/12/14 03:57:47;;;;;;;39.93;19.07;;;;;;;1.60;91.07;101308.27;126337;1099;104249;-79
2021/12/14 04:00:28;;;;;;;38.63;19.67;;;;;;;1.60;91.01;101295.33;126355;1099;104213;-79
2021/12/14 04:03:11;;;;;;;41.07;19.90;;;;;;;1.60;91.13;101301.40;126286;1099;104163;-79
2021/12/14 04:05:53;;;;;;;38.27;17.50;;;;;;;1.61;91.11;101303.22;126115;1099;104294;-76
2021/12/14 04:08:26;;;;;;;38.73;19.00;;;;;;;1.63;91.00;101302.45;125971;1099;104171;-76
2021/12/14 04:10:59;;;;;;;38.10;17.20;;;;;;;1.60;91.42;101298.81;126041;1099;104188;-76
2021/12/14 04:13:34;;;;;;;36.63;16.55;;;;;;;1.63;90.79;101305.05;126127;1099;104290;-76
2021/12/14 04:16:09;;;;;;;36.87;17.93;;;;;;;1.61;91.24;101290.28;126087;1098;104283;-76
2021/12/14 04:18:41;;;;;;;34.93;17.10;;;;;;;1.60;91.07;101293.64;126048;1099;104210;-76
2021/12/14 04:21:13;;;;;;;34.47;16.43;;;;;;;1.59;91.39;101298.69;126012;1099;104214;-76
2021/12/14 04:23:51;;;;;;;33.57;16.67;;;;;;;1.59;91.00;101299.61;126087;1099;104188;-76
2021/12/14 04:26:26;;;;;;;34.07;15.80;;;;;;;1.58;90.95;101307.24;126127;1099;104175;-75
2021/12/14 04:29:00;;;;;;;34.53;16.40;;;;;;;1.55;90.82;101301.81;126237;1098;104277;-78
2021/12/14 04:31:36;;;;;;;35.20;17.23;;;;;;;1.55;90.98;101304.40;126258;1099;104143;-78
2021/12/14 04:34:10;;;;;;;38.20;17.90;;;;;;;1.58;91.60;101309.83;126199;1099;104238;-77
2021/12/14 04:36:44;;;;;;;35.63;17.17;;;;;;;1.59;91.21;101317.72;126374;1099;104178;-78
2021/12/14 04:53:56;;;;;;;34.83;17.00;;;;;;;1.59;90.98;101333.24;126030;1099;110216;-78
2021/12/14 04:56:33;;;;;;;35.53;16.73;;;;;;;1.59;90.81;101334.90;126204;1099;104181;-78
2021/12/14 04:59:13;;;;;;;34.33;16.17;;;;;;;1.60;91.16;101339.31;126222;1099;104213;-78
2021/12/14 05:01:48;;;;;;;34.63;16.73;;;;;;;1.61;90.93;101334.27;126232;1099;104155;-79
2021/12/14 05:04:26;;;;;;;37.23;17.37;;;;;;;1.63;90.56;101339.57;126307;1099;104139;-79
2021/12/14 05:07:14;;;;;;;33.53;16.00;;;;;;;1.64;90.62;101341.39;126301;1099;104255;-78
2021/12/14 05:09:46;;;;;;;37.47;17.37;;;;;;;1.63;91.14;101342.16;126247;1099;104226;-79
2021/12/14 05:12:28;;;;;;;41.00;17.13;;;;;;;1.62;90.82;101340.34;126242;1099;104344;-80
2021/12/14 05:15:11;;;;;;;37.37;16.80;;;;;;;1.61;90.42;101335.96;125217;1099;104188;-80
2021/12/14 05:17:50;;;;;;;34.07;16.70;;;;;;;1.63;90.60;101339.57;125136;1099;104171;-77
2021/12/14 05:20:22;;;;;;;34.83;16.30;;;;;;;1.63;90.61;101336.09;125277;1102;104261;-79
2021/12/14 05:22:54;;;;;;;35.87;16.47;;;;;;;1.61;90.68;101342.03;125295;1102;104325;-79
2021/12/14 05:25:29;;;;;;;34.63;17.07;;;;;;;1.63;90.66;101342.16;125256;1102;104354;-79
2021/12/14 05:28:13;;;;;;;36.13;16.97;;;;;;;1.64;90.93;101345.64;125282;1102;104159;-79
2021/12/14 05:30:48;;;;;;;35.23;16.10;;;;;;;1.66;91.05;101346.70;125188;1102;104828;-78
2021/12/14 05:33:40;;;;;;;33.43;14.73;;;;;;;1.67;90.63;101351.08;125219;1102;104272;-78
2021/12/14 05:36:47;;;;;;;33.77;15.40;;;;;;;1.67;90.88;101348.48;125172;1102;104159;-79
2021/12/14 05:39:36;;;;;;;34.37;16.00;;;;;;;1.70;90.93;101349.68;125273;1102;104236;-79
2021/12/14 05:45:19;;;;;;;31.63;14.63;;;;;;;1.73;90.22;101352.53;125234;1102;102237;-79
2021/12/14 05:47:56;;;;;;;36.50;16.03;;;;;;;1.74;90.68;101351.73;125761;1099;104136;-80
2021/12/14 05:50:34;;;;;;;35.47;16.17;;;;;;;1.77;90.91;101356.27;125956;1099;104178;-80
2021/12/14 05:53:12;;;;;;;35.60;16.80;;;;;;;1.78;91.18;101365.86;125816;1099;104169;-80
2021/12/14 05:55:46;;;;;;;35.17;16.33;;;;;;;1.78;90.53;101371.92;126052;1099;107773;-80
2021/12/14 05:58:22;;;;;;;36.30;16.40;;;;;;;1.76;90.21;101373.48;125878;1098;104217;-80
2021/12/14 06:01:02;;;;;;;33.83;16.00;;;;;;;1.79;90.13;101372.82;125819;1099;104294;-80
2021/12/14 06:03:38;;;;;;;33.27;15.27;;;;;;;1.77;90.71;101370.10;125062;1102;101897;-81
2021/12/14 06:06:17;;;;;;;32.03;15.70;;;;;;;1.80;90.40;101375.54;125031;1102;102747;-81
2021/12/14 06:09:01;;;;;;;32.67;15.93;;;;;;;1.82;90.55;101374.77;124990;1102;104423;-81
2021/12/14 06:11:36;;;;;;;34.60;15.63;;;;;;;1.84;90.31;101388.73;125078;1102;104312;-81
2021/12/14 06:14:18;;;;;;;33.33;15.50;;;;;;;1.84;90.83;101388.73;125094;1102;104277;-80
2021/12/14 06:16:55;;;;;;;31.07;15.07;;;;;;;1.86;90.01;101392.39;125148;1102;104192;-80
2021/12/14 06:19:30;;;;;;;34.00;16.25;;;;;;;1.87;90.06;101394.17;125064;1102;104162;-81
2021/12/14 06:22:08;;;;;;;33.47;16.17;;;;;;;1.88;90.17;101396.00;125077;1102;104201;-82
2021/12/14 06:24:43;;;;;;;33.20;15.63;;;;;;;1.87;90.22;101395.10;125077;1099;104156;-82
2021/12/14 06:27:22;;;;;;;32.90;15.45;;;;;;;1.89;90.34;101397.83;125151;1100;104303;-81
2021/12/14 06:29:58;;;;;;;32.87;15.90;;;;;;;1.90;89.98;101397.02;125115;1102;104236;-82
2021/12/14 06:32:34;;;;;;;35.07;15.60;;;;;;;1.88;90.07;101396.89;125378;1099;102372;-80
2021/12/14 06:35:16;;;;;;;33.23;14.73;;;;;;;1.87;90.38;101399.35;125543;1099;104149;-81
2021/12/14 06:38:23;;;;;;;32.97;15.70;;;;;;;1.86;90.19;101397.56;125473;1099;104271;-79
2021/12/14 06:41:14;;;;;;;34.97;15.93;;;;;;;1.85;90.24;101411.27;125964;1099;104175;-80
2021/12/14 06:43:55;;;;;;;33.88;15.35;;;;;;;1.84;89.80;101404.27;126091;1097;104249;-78
2021/12/14 06:46:31;;;;;;;31.50;15.67;;;;;;;1.82;90.29;101409.31;125802;1099;104270;-77
2021/12/14 06:49:07;;;;;;;31.57;14.73;;;;;;;1.82;90.07;101408.42;125917;1099;104216;-79
2021/12/14 06:51:44;;;;;;;34.37;14.90;;;;;;;1.86;89.74;101402.73;125993;1099;104203;-79
2021/12/14 06:54:45;;;;;;;36.47;16.27;;;;;;;1.88;90.37;101401.17;125773;1099;104172;-79
2021/12/14 06:57:41;;;;;;;34.08;15.63;;;;;;;1.86;89.67;101402.73;125459;1099;104737;-80
2021/12/14 07:00:41;;;;;;;34.67;15.43;;;;;;;1.85;89.55;101409.57;125585;1099;104240;-80
2021/12/14 07:03:13;;;;;;;33.17;15.30;;;;;;;1.87;89.86;101404.53;125547;1099;104182;-80
2021/12/14 07:05:52;;;;;;;33.00;14.50;;;;;;;1.82;89.91;101409.31;125725;1099;104304;-78
2021/12/14 07:08:27;;;;;;;35.90;15.80;;;;;;;1.83;89.69;101398.20;125628;1099;104197;-79
2021/12/14 07:11:04;;;;;;;32.33;14.97;;;;;;;1.85;89.76;101396.63;125686;1099;104223;-80
2021/12/14 07:13:39;;;;;;;34.57;15.97;;;;;;;1.87;89.59;101386.41;125768;1099;104234;-80
2021/12/14 07:16:23;;;;;;;34.83;15.80;;;;;;;1.85;89.53;101386.28;125080;1099;104303;-79
2021/12/14 07:19:05;;;;;;;32.70;15.00;;;;;;;1.82;89.23;101386.02;125120;1100;104181;-80
2021/12/14 07:21:42;;;;;;;36.35;16.50;;;;;;;1.78;88.71;101371.92;125190;1099;104248;-81
2021/12/14 07:24:48;;;;;;;32.33;14.93;;;;;;;1.78;89.29;101382.27;125147;1102;102410;-83
2021/12/14 07:27:29;;;;;;;36.77;16.37;;;;;;;1.80;89.23;101382.41;125782;1099;104254;-80
2021/12/14 07:30:20;;;;;;;33.60;14.77;;;;;;;1.81;89.44;101386.81;125667;1099;104364;-81
2021/12/14 07:32:56;;;;;;;33.90;14.87;;;;;;;1.83;89.44;101386.95;125748;1099;104290;-81
2021/12/14 07:35:48;;;;;;;36.43;15.73;;;;;;;1.80;89.38;101383.30;124948;1099;104238;-78
2021/12/14 07:38:39;;;;;;;36.63;16.60;;;;;;;1.76;89.33;101373.48;125024;1099;104175;-78
2021/12/14 07:41:15;;;;;;;;;;;;;;;1.73;89.39;101378.41;125827;1099;104242;-79
2021/12/14 07:43:54;;;;;;;34.27;15.10;;;;;;;1.73;89.04;101373.23;125876;1099;104264;-79
2021/12/14 07:46:35;;;;;;;35.73;16.77;;;;;;;1.73;89.20;101375.81;125974;1099;102230;-81
2021/12/14 07:49:13;;;;;;;37.30;16.60;;;;;;;1.77;89.03;101375.27;126001;1099;104144;-78
2021/12/14 07:51:47;;;;;;;32.97;15.83;;;;;;;1.83;88.90;101381.77;126154;1099;104139;-81
2021/12/14 07:54:30;;;;;;;33.03;15.60;;;;;;;1.82;88.59;101379.95;126165;1099;104238;-82
2021/12/14 07:57:14;;;;;;;36.00;16.20;;;;;;;1.84;89.51;101386.15;126031;1099;105454;-80
2021/12/14 07:59:55;;;;;;;36.63;17.10;;;;;;;1.87;89.09;101384.75;126015;1097;103976;-80
2021/12/14 08:02:34;;;;;;;38.67;17.73;;;;;;;1.89;89.10;101387.47;125725;1099;104252;-82
2021/12/14 08:05:22;;;;;;;33.50;15.87;;;;;;;1.91;89.10;101379.03;125848;1099;104182;-81
2021/12/14 08:08:16;;;;;;;35.30;16.13;;;;;;;1.95;88.87;101382.81;125651;1099;104290;-82
2021/12/14 08:11:08;;;;;;;35.03;16.80;;;;;;;2.02;89.00;101385.12;125657;1099;104245;-80
2021/12/14 08:13:58;;;;;;;38.13;17.37;;;;;;;2.07;89.13;101386.43;125824;1099;104189;-80
2021/12/14 08:16:47;;;;;;;34.60;16.30;;;;;;;2.14;88.63;101382.66;125703;1099;104338;-79
2021/12/14 08:19:34;;;;;;;35.93;15.77;;;;;;;2.18;88.38;101382.12;125876;1099;103988;-78
2021/12/14 08:22:11;;;;;;;36.40;16.27;;;;;;;2.22;88.66;101391.97;125997;1099;104322;-81
2021/12/14 08:24:50;;;;;;;35.27;16.17;;;;;;;2.22;88.61;101394.55;125973;1099;104204;-79
2021/12/14 08:27:36;;;;;;;35.70;15.93;;;;;;;2.25;89.20;101393.92;125979;1099;104326;-81
2021/12/14 08:30:18;;;;;;;36.10;15.20;;;;;;;2.31;89.38;101389.25;125837;1099;104216;-82
2021/12/14 08:33:30;;;;;;;39.00;16.20;;;;;;;2.35;88.47;101388.70;125770;1099;102524;-80
2021/12/14 08:36:11;;;;;;;31.57;14.83;;;;;;;2.39;88.99;101377.83;125698;1099;104687;-79
2021/12/14 08:38:45;;;;;;;32.03;14.10;;;;;;;2.42;87.52;101380.67;126167;1099;104236;-78
2021/12/14 08:41:24;;;;;;;33.55;15.63;;;;;;;2.42;88.53;101377.19;125721;1099;104605;-80
2021/12/14 08:44:08;;;;;;;36.30;15.80;;;;;;;2.43;88.73;101369.54;125747;1099;104172;-81
2021/12/14 08:46:41;;;;;;;34.30;15.17;;;;;;;2.49;88.53;101371.70;125851;1099;104191;-79
2021/12/14 08:49:15;;;;;;;35.50;15.77;;;;;;;2.51;89.00;101365.88;125885;1099;118215;-81
2021/12/14 08:51:52;;;;;;;36.43;15.57;;;;;;;2.46;88.43;101353.32;125891;1099;104246;-81
2021/12/14 08:54:26;;;;;;;30.10;12.87;;;;;;;2.51;87.01;101367.58;125923;1099;104182;-79
2021/12/14 08:57:04;;;;;;;31.63;14.67;;;;;;;2.50;87.49;101363.16;125743;1099;104252;-79
2021/12/14 08:59:38;;;;;;;28.67;13.23;;;;;;;2.49;86.79;101370.05;125926;1099;104245;-80
2021/12/14 09:02:14;;;;;;;34.63;14.40;;;;;;;2.47;86.92;101362.91;125940;1099;104178;-80
2021/12/14 09:04:51;;;;;;;30.80;14.83;;;;;;;2.47;87.34;101374.17;125933;1098;104440;-80
2021/12/14 09:07:27;;;;;;;33.50;15.03;;;;;;;2.48;87.04;101368.22;125894;1099;104265;-81
2021/12/14 09:10:02;;;;;;;34.40;15.27;;;;;;;2.49;87.35;101358.75;125955;1099;102959;-78
2021/12/14 09:12:55;;;;;;;32.07;14.57;;;;;;;2.48;87.11;101363.04;125948;1099;102292;-81
2021/12/14 09:15:35;;;;;;;31.83;13.50;;;;;;;2.48;87.30;101365.63;126026;1099;104256;-81
2021/12/14 09:18:10;;;;;;;31.50;15.27;;;;;;;2.52;87.11;101364.19;125965;1099;104667;-80
2021/12/14 09:20:47;;;;;;;32.93;15.43;;;;;;;2.56;86.72;101355.89;125996;1097;104261;-81
2021/12/14 09:23:31;;;;;;;33.73;14.50;;;;;;;2.63;87.55;101353.03;125736;1099;104159;-80
2021/12/14 09:26:08;;;;;;;35.43;15.63;;;;;;;2.74;87.05;101353.87;125839;1099;104191;-78
2021/12/14 09:28:48;;;;;;;29.93;14.30;;;;;;;2.84;86.75;101355.54;125715;1099;104194;-80
2021/12/14 09:31:27;;;;;;;31.07;14.17;;;;;;;2.92;86.24;101338.90;125693;1099;104668;-78
2021/12/14 09:34:02;;;;;;;33.00;15.45;;;;;;;2.99;86.90;101346.40;125926;1099;104191;-78
2021/12/14 09:36:34;;;;;;;;;;;;;;;3.00;85.09;101336.92;125726;1099;104354;-78
2021/12/14 09:39:10;;;;;;;29.27;13.50;;;;;;;3.06;87.07;101334.81;125172;1099;104354;-79
2021/12/14 09:41:50;;;;;;;31.23;15.00;;;;;;;3.11;86.49;101340.36;125971;1099;104232;-79
2021/12/14 09:44:29;;;;;;;29.97;13.97;;;;;;;3.15;86.49;101345.02;125224;1099;104209;-78
2021/12/14 09:47:10;;;;;;;32.00;13.93;;;;;;;3.12;85.01;101343.08;125259;1099;104351;-79
2021/12/14 09:49:47;;;;;;;30.80;13.63;;;;;;;3.13;85.46;101339.72;125777;1099;105184;-81
2021/12/14 09:52:32;;;;;;;29.30;13.70;;;;;;;3.16;85.91;101336.44;125867;1099;102499;-83
2021/12/14 09:55:11;;;;;;;29.63;13.10;;;;;;;3.18;85.30;101327.08;125303;1098;102641;-80
2021/12/14 09:57:53;;;;;;;27.27;12.97;;;;;;;3.20;84.62;101334.20;125281;1099;104230;-79
2021/12/14 10:00:38;;;;;;;27.27;12.67;;;;;;;3.18;84.23;101329.67;125328;1099;104214;-78
2021/12/14 10:03:11;;;;;;;28.50;13.47;;;;;;;3.19;84.60;101332.37;125901;1099;104232;-80
2021/12/14 10:06:01;;;;;;;26.93;13.10;;;;;;;3.15;84.80;101330.35;126033;1099;102312;-81
2021/12/14 10:08:43;;;;;;;29.30;13.30;;;;;;;3.12;84.77;101332.70;125960;1099;104635;-80
2021/12/14 10:11:33;;;;;;;28.93;13.43;;;;;;;3.16;85.53;101324.36;125772;1099;104172;-80
2021/12/14 10:14:17;;;;;;;26.43;12.33;;;;;;;3.21;84.27;101338.62;125794;1099;104146;-79
2021/12/14 10:16:54;;;;;;;28.83;13.13;;;;;;;3.22;84.69;101322.25;125832;1098;104146;-78
2021/12/14 10:19:30;;;;;;;27.83;13.33;;;;;;;3.19;84.46;101316.82;125918;1099;104439;-81
2021/12/14 10:22:15;;;;;;;27.50;12.90;;;;;;;3.14;83.81;101325.94;125777;1099;104224;-78
2021/12/14 10:24:50;;;;;;;27.37;13.53;;;;;;;3.13;84.84;101323.22;125623;1099;104165;-79
2021/12/14 10:27:29;;;;;;;28.50;13.00;;;;;;;3.11;84.36;101324.80;125714;1099;104624;-81
2021/12/14 10:30:16;;;;;;;28.87;14.07;;;;;;;3.08;84.72;101315.08;125761;1099;102829;-79
2021/12/14 10:32:54;;;;;;;27.90;13.63;;;;;;;3.06;84.65;101309.77;125875;1099;104140;-80
2021/12/14 10:35:55;;;;;;;29.63;13.73;;;;;;;3.08;85.16;101307.30;125996;1096;104312;-80
2021/12/14 10:38:50;;;;;;;28.57;13.27;;;;;;;3.10;85.06;101308.35;126164;1097;104149;-80
2021/12/14 10:44:15;;;;;;;30.27;13.80;;;;;;;3.04;84.04;101305.28;125741;1099;102870;-78
2021/12/14 10:46:52;;;;;;;32.60;13.73;;;;;;;3.04;84.98;101311.36;125997;1099;104246;-79
2021/12/14 10:49:27;;;;;;;27.97;14.37;;;;;;;3.04;84.69;101311.36;126007;1099;104226;-79
2021/12/14 10:52:03;;;;;;;27.43;13.37;;;;;;;3.04;84.41;101307.87;125869;1099;104179;-80
2021/12/14 10:54:41;;;;;;;29.10;13.50;;;;;;;3.04;85.01;101307.87;125740;1099;104175;-82
2021/12/14 11:00:32;;;;;;;26.80;12.83;;;;;;;3.05;84.93;101301.87;126061;1099;104275;-78
2021/12/14 11:03:19;;;;;;;28.87;13.90;;;;;;;3.05;84.57;101305.40;125713;1099;104290;-80
2021/12/14 11:09:45;;;;;;;30.43;14.37;;;;;;;3.04;84.39;101305.28;125720;1099;104401;-79
2021/12/14 11:12:31;;;;;;;28.77;12.77;;;;;;;2.99;84.29;101302.31;125002;1102;110906;-80
2021/12/14 11:15:12;;;;;;;31.03;14.13;;;;;;;2.96;84.57;101301.15;125053;1102;104220;-81
2021/12/14 11:18:15;;;;;;;29.30;13.63;;;;;;;2.96;83.98;101308.92;124999;1102;104474;-80
2021/12/14 11:20:57;;;;;;;27.50;13.10;;;;;;;2.95;84.13;101304.55;124892;1102;105470;-81
2021/12/14 11:23:41;;;;;;;29.37;13.73;;;;;;;2.95;83.94;101292.48;124930;1102;104188;-82
2021/12/14 11:26:35;;;;;;;28.70;12.60;;;;;;;2.97;84.30;101298.67;124954;1102;104224;-82
2021/12/14 11:29:16;;;;;;;27.00;12.20;;;;;;;2.96;84.20;101307.27;124893;1102;102710;-81
2021/12/14 11:32:19;;;;;;;27.17;12.70;;;;;;;2.97;84.75;101292.59;125587;1099;104277;-82
2021/12/14 11:35:20;;;;;;;25.13;11.93;;;;;;;3.02;84.19;101288.67;125835;1099;104201;-82
2021/12/14 11:37:56;;;;;;;26.17;12.30;;;;;;;3.06;84.58;101296.81;125719;1099;104219;-82
2021/12/14 11:40:33;;;;;;;26.27;11.30;;;;;;;3.09;84.15;101300.45;125782;1099;104246;-80
2021/12/14 11:46:10;;;;;;;27.10;12.40;;;;;;;3.08;84.32;101294.34;125772;1099;104194;-80
2021/12/14 11:48:43;;;;;;;26.87;12.00;;;;;;;3.07;84.13;101300.33;125721;1098;102630;-79
2021/12/14 11:51:34;;;;;;;26.63;12.17;;;;;;;3.09;84.34;101292.67;125934;1099;104175;-80
2021/12/14 11:54:09;;;;;;;26.63;12.23;;;;;;;3.11;84.01;101291.98;125934;1099;104163;-82
2021/12/14 11:56:41;;;;;;;28.12;12.55;;;;;;;3.13;84.28;101295.63;125614;1099;104220;-80
2021/12/14 12:02:28;;;;;;;28.23;11.77;;;;;;;3.16;84.86;101295.83;125302;1099;104431;-82
2021/12/14 12:05:58;;;;;;;25.27;11.73;;;;;;;3.18;84.06;101283.91;125388;1099;104178;-79
2021/12/14 12:11:47;;;;;;;28.20;12.70;;;;;;;3.16;84.45;101287.16;125212;1099;104265;-80
2021/12/14 12:17:42;;;;;;;29.90;12.33;;;;;;;3.17;84.68;101288.98;125808;1099;104325;-82
2021/12/14 12:20:28;;;;;;;27.65;12.35;;;;;;;3.19;83.56;101288.29;125891;1099;104307;-81
2021/12/14 12:23:22;;;;;;;24.37;11.93;;;;;;;3.19;83.56;101297.77;125309;1099;104277;-79
2021/12/14 12:26:28;;;;;;;28.60;12.63;;;;;;;3.14;83.95;101291.33;125487;1099;104147;-80
2021/12/14 12:29:08;;;;;;;28.57;12.77;;;;;;;3.13;83.66;101293.03;125998;1099;104239;-81
2021/12/14 12:31:55;;;;;;;31.13;13.73;;;;;;;3.11;84.25;101285.91;125872;1099;104246;-84
2021/12/14 12:34:49;;;;;;;26.67;12.17;;;;;;;3.13;83.87;101292.11;125997;1099;103989;-80
2021/12/14 12:38:13;;;;;;;27.30;11.60;;;;;;;3.09;83.76;101292.67;125963;1099;104272;-80
2021/12/14 12:44:22;;;;;;;27.33;12.10;;;;;;;3.06;83.82;101288.14;125850;1099;102335;-81
2021/12/14 12:47:31;;;;;;;;;;;;;;;;;;;;;
2021/12/14 12:54:10;;;;;;;26.82;12.00;;;;;;;3.04;83.10;101276.75;125496;1099;104188;-81